createdAt,value
2022-10-20T00:01:00.053Z,81.48
2022-10-20T00:02:18.560Z,81.63
2022-10-20T00:03:20.584Z,81.36
2022-10-20T00:04:23.205Z,81.42
2022-10-20T00:05:24.720Z,81.50
2022-10-20T00:06:29.603Z,81.61
2022-10-20T00:07:31.131Z,81.63
2022-10-20T00:08:33.621Z,81.73
2022-10-20T00:09:35.178Z,81.58
2022-10-20T00:10:44.029Z,81.75
2022-10-20T00:11:46.817Z,81.53
2022-10-20T00:12:49.682Z,81.83
2022-10-20T00:13:54.031Z,81.59
2022-10-20T00:14:55.567Z,81.70
2022-10-20T00:15:59.961Z,81.96
2022-10-20T00:17:01.576Z,81.79
2022-10-20T00:18:04.189Z,81.86
2022-10-20T00:19:06.005Z,81.94
2022-10-20T00:20:09.659Z,81.98
2022-10-20T00:21:14.717Z,81.98
2022-10-20T00:22:17.221Z,81.99
2022-10-20T00:23:18.920Z,81.88
2022-10-20T00:24:21.638Z,82.01
2022-10-20T00:25:23.187Z,81.94
2022-10-20T00:26:27.437Z,81.83
2022-10-20T00:27:28.986Z,82.02
2022-10-20T00:28:32.982Z,82.06
2022-10-20T00:29:34.523Z,82.01
2022-10-20T00:30:37.533Z,82.06
2022-10-20T00:31:39.362Z,82.12
2022-10-20T00:32:41.851Z,81.93
2022-10-20T00:33:43.735Z,81.85
2022-10-20T00:34:46.208Z,82.08
2022-10-20T00:35:47.772Z,82.14
2022-10-20T00:36:51.523Z,82.12
2022-10-20T00:37:53.283Z,82.23
2022-10-20T00:38:59.184Z,82.25
2022-10-20T00:40:00.726Z,82.17
2022-10-20T00:41:03.807Z,82.33
2022-10-20T00:42:05.934Z,82.09
2022-10-20T00:43:11.932Z,82.13
2022-10-20T00:44:49.466Z,82.39
2022-10-20T00:45:54.764Z,82.23
2022-10-20T00:46:58.272Z,82.26
2022-10-20T00:48:05.298Z,82.29
2022-10-20T00:49:13.621Z,82.20
2022-10-20T00:50:17.988Z,82.06
2022-10-20T00:51:23.400Z,82.19
2022-10-20T00:52:25.868Z,82.54
2022-10-20T00:53:29.874Z,82.54
2022-10-20T00:54:32.161Z,82.23
2022-10-20T00:55:38.515Z,82.39
2022-10-20T00:56:44.029Z,82.46
2022-10-20T00:57:50.534Z,82.23
2022-10-20T00:58:52.226Z,82.52
2022-10-20T00:59:56.125Z,82.31
2022-10-20T01:06:01.865Z,82.21
2022-10-20T01:07:04.757Z,82.39
2022-10-20T01:08:07.167Z,82.24
2022-10-20T01:09:09.952Z,82.33
2022-10-20T01:10:12.535Z,82.23
2022-10-20T01:11:20.805Z,82.44
2022-10-20T01:12:34.437Z,82.41
2022-10-20T01:13:42.984Z,82.33
2022-10-20T01:14:53.964Z,82.64
2022-10-20T01:16:04.669Z,82.30
2022-10-20T01:17:17.582Z,82.24
2022-10-20T01:18:28.496Z,82.27
2022-10-20T01:19:53.625Z,82.47
2022-10-20T01:21:13.063Z,82.12
2022-10-20T01:22:35.482Z,82.50
2022-10-20T01:23:58.603Z,82.24
2022-10-20T01:25:14.253Z,82.20
2022-10-20T01:26:39.310Z,82.22
2022-10-20T01:27:43.914Z,82.23
2022-10-20T01:28:52.389Z,82.26
2022-10-20T01:30:01.510Z,82.29
2022-10-20T01:31:13.219Z,82.31
2022-10-20T01:32:20.264Z,82.48
2022-10-20T01:33:31.881Z,82.29
2022-10-20T01:34:39.588Z,82.27
2022-10-20T01:35:52.122Z,82.22
2022-10-20T01:37:00.027Z,82.25
2022-10-20T01:38:12.825Z,82.06
2022-10-20T01:39:17.850Z,82.34
2022-10-20T01:40:27.438Z,82.22
2022-10-20T01:41:34.211Z,82.28
2022-10-20T01:42:40.460Z,82.35
2022-10-20T01:43:46.560Z,82.33
2022-10-20T01:44:50.920Z,81.98
2022-10-20T01:45:54.527Z,82.36
2022-10-20T01:46:59.522Z,82.28
2022-10-20T01:48:05.330Z,82.38
2022-10-20T01:49:08.602Z,82.36
2022-10-20T01:50:12.468Z,82.12
2022-10-20T01:51:15.003Z,82.36
2022-10-20T01:52:17.398Z,82.22
2022-10-20T01:53:20.851Z,82.11
2022-10-20T01:54:23.579Z,82.17
2022-10-20T01:55:26.500Z,82.41
2022-10-20T01:56:38.464Z,82.19
2022-10-20T01:57:50.570Z,82.30
2022-10-20T01:59:26.246Z,82.35
2022-10-20T02:00:27.795Z,82.18
2022-10-20T02:01:45.551Z,82.29
2022-10-20T02:03:02.616Z,82.30
2022-10-20T02:04:08.202Z,82.21
2022-10-20T02:05:31.243Z,82.34
2022-10-20T02:06:43.652Z,82.15
2022-10-20T02:07:45.234Z,82.15
2022-10-20T02:08:50.581Z,82.18
2022-10-20T02:10:00.488Z,82.07
2022-10-20T02:11:06.386Z,82.20
2022-10-20T02:12:13.448Z,81.92
2022-10-20T02:13:17.440Z,81.94
2022-10-20T02:14:22.944Z,81.97
2022-10-20T02:15:28.482Z,81.71
2022-10-20T02:16:35.810Z,81.79
2022-10-20T02:17:40.690Z,81.94
2022-10-20T02:18:44.205Z,81.54
2022-10-20T02:19:51.052Z,81.83
2022-10-20T02:20:55.973Z,81.77
2022-10-20T02:21:59.016Z,81.86
2022-10-20T02:23:02.780Z,81.89
2022-10-20T02:24:08.204Z,81.77
2022-10-20T02:25:11.102Z,81.64
2022-10-20T02:26:15.877Z,81.80
2022-10-20T02:27:22.448Z,81.68
2022-10-20T02:28:25.848Z,81.58
2022-10-20T02:29:33.403Z,81.26
2022-10-20T02:30:37.527Z,81.44
2022-10-20T02:31:42.228Z,81.31
2022-10-20T02:32:49.165Z,81.55
2022-10-20T02:33:52.832Z,81.36
2022-10-20T02:34:55.282Z,81.23
2022-10-20T02:35:59.115Z,81.49
2022-10-20T02:37:02.338Z,81.34
2022-10-20T02:38:04.117Z,81.34
2022-10-20T02:39:07.073Z,81.25
2022-10-20T02:40:09.571Z,81.14
2022-10-20T02:41:12.138Z,81.09
2022-10-20T02:42:13.680Z,81.03
2022-10-20T02:43:16.213Z,81.26
2022-10-20T02:44:18.003Z,81.12
2022-10-20T02:45:22.150Z,81.06
2022-10-20T02:46:24.426Z,81.12
2022-10-20T02:47:26.978Z,81.00
2022-10-20T02:48:28.482Z,80.74
2022-10-20T02:49:30.915Z,81.03
2022-10-20T02:50:33.596Z,80.94
2022-10-20T02:51:36.188Z,81.06
2022-10-20T02:52:38.238Z,80.93
2022-10-20T02:53:40.733Z,80.93
2022-10-20T02:54:42.310Z,80.81
2022-10-20T02:55:45.820Z,80.81
2022-10-20T02:56:47.427Z,80.94
2022-10-20T02:57:50.930Z,80.92
2022-10-20T02:58:52.532Z,80.82
2022-10-20T02:59:55.080Z,80.59
2022-10-20T03:00:57.949Z,81.03
2022-10-20T03:02:00.883Z,80.61
2022-10-20T03:03:03.108Z,80.26
2022-10-20T03:04:06.069Z,80.70
2022-10-20T03:05:08.507Z,80.74
2022-10-20T03:06:13.207Z,80.62
2022-10-20T03:07:14.882Z,80.74
2022-10-20T03:08:18.071Z,80.90
2022-10-20T03:09:19.633Z,80.74
2022-10-20T03:10:22.138Z,80.87
2022-10-20T03:11:25.288Z,80.74
2022-10-20T03:12:30.141Z,80.71
2022-10-20T03:13:33.749Z,80.49
2022-10-20T03:14:36.299Z,80.57
2022-10-20T03:15:38.359Z,80.63
2022-10-20T03:16:42.177Z,80.65
2022-10-20T03:17:49.806Z,80.53
2022-10-20T03:18:52.342Z,80.63
2022-10-20T03:19:53.864Z,80.83
2022-10-20T03:20:56.308Z,80.70
2022-10-20T03:21:57.856Z,80.62
2022-10-20T03:23:00.695Z,80.37
2022-10-20T03:24:02.261Z,80.46
2022-10-20T03:25:05.367Z,80.42
2022-10-20T03:26:10.467Z,80.48
2022-10-20T03:27:12.942Z,80.49
2022-10-20T03:28:14.468Z,80.46
2022-10-20T03:29:17.129Z,80.33
2022-10-20T03:30:19.174Z,80.42
2022-10-20T03:31:21.998Z,80.46
2022-10-20T03:32:24.957Z,80.30
2022-10-20T03:33:27.867Z,80.54
2022-10-20T03:34:29.410Z,80.42
2022-10-20T03:35:32.084Z,80.33
2022-10-20T03:36:34.960Z,80.37
2022-10-20T03:37:36.642Z,80.29
2022-10-20T03:38:41.711Z,80.37
2022-10-20T03:39:43.215Z,80.29
2022-10-20T03:40:45.697Z,80.19
2022-10-20T03:41:47.364Z,79.96
2022-10-20T03:42:49.892Z,79.97
2022-10-20T03:43:51.562Z,80.02
2022-10-20T03:44:54.045Z,79.94
2022-10-20T03:46:02.375Z,80.10
2022-10-20T03:47:05.076Z,80.22
2022-10-20T03:48:08.445Z,79.93
2022-10-20T03:49:10.959Z,79.58
2022-10-20T03:50:16.478Z,80.02
2022-10-20T03:51:19.066Z,79.98
2022-10-20T03:52:20.636Z,79.94
2022-10-20T03:53:23.132Z,80.05
2022-10-20T03:54:24.923Z,79.94
2022-10-20T03:55:27.447Z,79.81
2022-10-20T03:56:29.033Z,79.99
2022-10-20T03:57:31.671Z,79.88
2022-10-20T03:58:33.230Z,79.99
2022-10-20T03:59:35.780Z,79.75
2022-10-20T04:00:37.507Z,79.88
2022-10-20T04:01:40.021Z,79.61
2022-10-20T04:02:43.571Z,79.83
2022-10-20T04:03:47.354Z,79.67
2022-10-20T04:04:49.048Z,79.81
2022-10-20T04:05:51.773Z,79.87
2022-10-20T04:06:53.303Z,79.84
2022-10-20T04:07:55.800Z,79.86
2022-10-20T04:08:57.394Z,79.76
2022-10-20T04:10:02.067Z,79.75
2022-10-20T04:11:04.158Z,79.73
2022-10-20T04:12:06.958Z,79.97
2022-10-20T04:13:09.339Z,79.56
2022-10-20T04:14:12.013Z,79.79
2022-10-20T04:15:13.688Z,79.70
2022-10-20T04:16:16.183Z,79.71
2022-10-20T04:17:17.721Z,79.75
2022-10-20T04:18:20.206Z,79.70
2022-10-20T04:19:23.103Z,79.71
2022-10-20T04:20:25.672Z,79.68
2022-10-20T04:21:27.192Z,79.56
2022-10-20T04:22:30.116Z,79.64
2022-10-20T04:23:31.647Z,79.31
2022-10-20T04:24:34.148Z,79.57
2022-10-20T04:25:35.659Z,79.48
2022-10-20T04:26:38.169Z,79.35
2022-10-20T04:27:40.394Z,79.54
2022-10-20T04:28:43.148Z,79.54
2022-10-20T04:29:44.654Z,79.32
2022-10-20T04:30:47.850Z,79.52
2022-10-20T04:31:49.433Z,79.48
2022-10-20T04:32:51.981Z,79.54
2022-10-20T04:33:53.489Z,79.51
2022-10-20T04:34:58.349Z,79.37
2022-10-20T04:36:00.558Z,79.51
2022-10-20T04:37:06.344Z,79.60
2022-10-20T04:38:08.029Z,79.53
2022-10-20T04:39:10.665Z,79.45
2022-10-20T04:40:13.355Z,79.40
2022-10-20T04:41:14.956Z,79.41
2022-10-20T04:42:17.543Z,79.70
2022-10-20T04:43:19.049Z,79.32
2022-10-20T04:44:21.538Z,79.41
2022-10-20T04:45:23.066Z,79.41
2022-10-20T04:46:26.606Z,79.30
2022-10-20T04:47:31.754Z,79.21
2022-10-20T04:48:34.352Z,79.30
2022-10-20T04:49:37.084Z,79.29
2022-10-20T04:50:39.941Z,79.45
2022-10-20T04:51:42.689Z,79.13
2022-10-20T04:52:44.491Z,79.12
2022-10-20T04:53:47.680Z,79.13
2022-10-20T04:54:49.966Z,79.14
2022-10-20T04:55:55.444Z,78.88
2022-10-20T04:56:57.214Z,79.01
2022-10-20T04:57:59.762Z,79.10
2022-10-20T04:59:01.580Z,79.01
2022-10-20T05:00:05.761Z,78.98
2022-10-20T05:01:10.014Z,79.11
2022-10-20T05:02:12.617Z,79.01
2022-10-20T05:03:14.117Z,78.94
2022-10-20T05:04:20.878Z,79.32
2022-10-20T05:05:22.462Z,78.97
2022-10-20T05:06:28.238Z,78.84
2022-10-20T05:07:30.298Z,78.81
2022-10-20T05:08:32.804Z,78.91
2022-10-20T05:09:34.481Z,78.84
2022-10-20T05:10:39.998Z,78.83
2022-10-20T05:11:43.037Z,78.66
2022-10-20T05:12:44.660Z,78.78
2022-10-20T05:13:47.710Z,78.90
2022-10-20T05:14:50.259Z,78.51
2022-10-20T05:15:52.211Z,78.59
2022-10-20T05:16:54.761Z,78.62
2022-10-20T05:17:56.286Z,78.53
2022-10-20T05:18:58.934Z,78.36
2022-10-20T05:20:00.778Z,78.38
2022-10-20T05:21:09.741Z,78.49
2022-10-20T05:22:14.584Z,78.55
2022-10-20T05:23:16.258Z,78.44
2022-10-20T05:24:21.454Z,78.40
2022-10-20T05:25:36.041Z,78.57
2022-10-20T05:26:39.546Z,78.47
2022-10-20T05:27:41.088Z,78.50
2022-10-20T05:28:45.548Z,78.14
2022-10-20T05:29:47.109Z,78.33
2022-10-20T05:30:49.698Z,78.26
2022-10-20T05:31:51.233Z,78.37
2022-10-20T05:32:53.705Z,78.58
2022-10-20T05:33:56.765Z,78.42
2022-10-20T05:34:59.375Z,78.38
2022-10-20T05:36:06.164Z,78.20
2022-10-20T05:37:08.769Z,78.19
2022-10-20T05:38:11.674Z,78.47
2022-10-20T05:39:14.216Z,78.47
2022-10-20T05:40:15.883Z,78.12
2022-10-20T05:41:21.177Z,78.29
2022-10-20T05:42:23.774Z,78.00
2022-10-20T05:43:25.337Z,78.10
2022-10-20T05:44:27.895Z,77.76
2022-10-20T05:45:29.440Z,78.00
2022-10-20T05:46:33.817Z,77.59
2022-10-20T05:47:35.549Z,78.00
2022-10-20T05:48:42.852Z,78.22
2022-10-20T05:49:44.775Z,77.87
2022-10-20T05:50:47.392Z,77.85
2022-10-20T05:51:49.542Z,78.17
2022-10-20T05:52:52.114Z,78.05
2022-10-20T05:53:57.448Z,78.23
2022-10-20T05:55:00.319Z,77.87
2022-10-20T05:56:05.464Z,78.28
2022-10-20T05:57:07.912Z,78.08
2022-10-20T05:58:09.557Z,77.96
2022-10-20T05:59:12.552Z,77.89
2022-10-20T06:00:15.908Z,78.01
2022-10-20T06:01:23.453Z,78.02
2022-10-20T06:02:25.160Z,77.88
2022-10-20T06:03:28.402Z,77.87
2022-10-20T06:04:31.894Z,77.99
2022-10-20T06:05:33.711Z,77.70
2022-10-20T06:06:37.115Z,78.03
2022-10-20T06:07:38.802Z,77.77
2022-10-20T06:08:41.753Z,77.69
2022-10-20T06:09:45.533Z,77.62
2022-10-20T06:10:49.114Z,77.42
2022-10-20T06:11:52.984Z,77.72
2022-10-20T06:12:54.649Z,77.70
2022-10-20T06:13:57.696Z,77.73
2022-10-20T06:15:01.056Z,77.58
2022-10-20T06:16:04.187Z,77.41
2022-10-20T06:17:06.812Z,77.41
2022-10-20T06:18:08.353Z,77.40
2022-10-20T06:19:11.549Z,77.35
2022-10-20T06:20:13.123Z,77.36
2022-10-20T06:21:17.820Z,77.56
2022-10-20T06:22:20.426Z,77.39
2022-10-20T06:23:21.976Z,77.34
2022-10-20T06:24:24.527Z,77.20
2022-10-20T06:25:27.609Z,77.13
2022-10-20T06:26:32.796Z,77.30
2022-10-20T06:27:35.364Z,77.34
2022-10-20T06:28:38.272Z,77.29
2022-10-20T06:29:40.818Z,77.21
2022-10-20T06:30:42.382Z,76.93
2022-10-20T06:31:47.631Z,77.20
2022-10-20T06:32:53.764Z,77.15
2022-10-20T06:33:57.240Z,76.94
2022-10-20T06:34:59.987Z,77.19
2022-10-20T06:36:02.670Z,77.21
2022-10-20T06:37:05.120Z,77.21
2022-10-20T06:38:06.641Z,77.13
2022-10-20T06:39:12.234Z,77.00
2022-10-20T06:40:13.804Z,77.07
2022-10-20T06:41:18.857Z,77.00
2022-10-20T06:42:20.445Z,76.92
2022-10-20T06:43:23.128Z,76.62
2022-10-20T06:44:25.717Z,76.96
2022-10-20T06:45:27.320Z,77.01
2022-10-20T06:46:32.954Z,76.90
2022-10-20T06:47:35.998Z,76.70
2022-10-20T06:48:37.817Z,76.92
2022-10-20T06:49:40.314Z,76.88
2022-10-20T06:50:41.840Z,76.95
2022-10-20T06:51:44.565Z,76.90
2022-10-20T06:52:46.266Z,76.85
2022-10-20T06:53:49.353Z,76.49
2022-10-20T06:54:52.856Z,76.82
2022-10-20T06:55:58.328Z,76.79
2022-10-20T06:57:02.123Z,76.67
2022-10-20T06:58:03.706Z,76.71
2022-10-20T06:59:06.304Z,76.71
2022-10-20T07:00:09.267Z,76.64
2022-10-20T07:01:14.555Z,76.84
2022-10-20T07:02:16.367Z,76.63
2022-10-20T07:03:18.942Z,76.71
2022-10-20T07:04:21.468Z,76.69
2022-10-20T07:05:23.115Z,76.76
2022-10-20T07:06:29.621Z,76.57
2022-10-20T07:07:31.307Z,76.33
2022-10-20T07:08:36.180Z,76.49
2022-10-20T07:09:39.100Z,76.42
2022-10-20T07:10:41.359Z,76.55
2022-10-20T07:11:46.145Z,76.41
2022-10-20T07:12:48.980Z,76.40
2022-10-20T07:13:52.104Z,76.38
2022-10-20T07:14:53.689Z,76.60
2022-10-20T07:15:56.804Z,76.33
2022-10-20T07:16:59.420Z,76.32
2022-10-20T07:18:01.284Z,76.24
2022-10-20T07:19:05.247Z,76.24
2022-10-20T07:20:07.678Z,76.28
2022-10-20T07:21:14.047Z,76.30
2022-10-20T07:22:15.753Z,76.29
2022-10-20T07:23:18.680Z,76.28
2022-10-20T07:24:21.155Z,76.25
2022-10-20T07:25:22.693Z,76.26
2022-10-20T07:26:27.702Z,76.06
2022-10-20T07:27:30.247Z,76.25
2022-10-20T07:28:35.212Z,76.04
2022-10-20T07:29:38.394Z,75.74
2022-10-20T07:30:40.718Z,76.18
2022-10-20T07:31:44.791Z,76.01
2022-10-20T07:32:46.329Z,76.08
2022-10-20T07:34:06.801Z,75.99
2022-10-20T07:35:12.133Z,76.19
2022-10-20T07:36:15.389Z,76.15
2022-10-20T07:37:17.869Z,76.01
2022-10-20T07:38:19.434Z,75.76
2022-10-20T07:39:22.018Z,76.29
2022-10-20T07:41:31.573Z,75.94
2022-10-20T07:42:33.078Z,75.85
2022-10-20T07:43:37.763Z,76.00
2022-10-20T07:44:50.249Z,75.60
2022-10-20T07:45:51.809Z,75.48
2022-10-20T07:46:54.683Z,75.71
2022-10-20T07:47:57.649Z,75.68
2022-10-20T07:49:22.738Z,75.55
2022-10-20T07:50:23.328Z,75.64
2022-10-20T07:51:28.611Z,75.60
2022-10-20T07:52:31.478Z,75.58
2022-10-20T07:53:34.149Z,75.52
2022-10-20T07:54:36.772Z,75.70
2022-10-20T07:55:39.355Z,75.57
2022-10-20T07:56:44.579Z,75.53
2022-10-20T07:57:47.733Z,75.49
2022-10-20T07:58:50.661Z,75.38
2022-10-20T07:59:53.255Z,75.58
2022-10-20T08:00:54.776Z,75.23
2022-10-20T08:01:59.582Z,75.41
2022-10-20T08:03:02.533Z,75.42
2022-10-20T08:04:04.464Z,75.32
2022-10-20T08:05:07.423Z,75.50
2022-10-20T08:06:09.097Z,75.16
2022-10-20T08:07:11.935Z,75.42
2022-10-20T08:08:13.486Z,75.50
2022-10-20T08:09:15.987Z,75.28
2022-10-20T08:10:18.823Z,75.29
2022-10-20T08:11:20.439Z,75.34
2022-10-20T08:12:22.912Z,75.30
2022-10-20T08:13:24.703Z,75.14
2022-10-20T08:14:31.876Z,74.95
2022-10-20T08:15:35.535Z,75.17
2022-10-20T08:16:39.561Z,75.23
2022-10-20T08:17:42.404Z,75.16
2022-10-20T08:18:52.901Z,74.87
2022-10-20T08:21:15.564Z,74.80
2022-10-20T08:22:19.342Z,75.03
2022-10-20T08:23:23.061Z,75.01
2022-10-20T08:24:24.688Z,74.83
2022-10-20T08:25:28.389Z,74.83
2022-10-20T08:26:31.071Z,74.62
2022-10-20T08:27:33.581Z,74.65
2022-10-20T08:28:35.511Z,74.55
2022-10-20T08:29:40.201Z,74.80
2022-10-20T08:30:42.993Z,74.78
2022-10-20T08:31:44.793Z,74.52
2022-10-20T08:32:51.324Z,74.39
2022-10-20T08:33:53.941Z,74.53
2022-10-20T08:34:57.274Z,74.48
2022-10-20T08:36:02.902Z,74.61
2022-10-20T08:37:05.662Z,74.28
2022-10-20T08:38:08.457Z,74.42
2022-10-20T08:39:10.216Z,74.40
2022-10-20T08:40:17.322Z,74.49
2022-10-20T08:41:23.029Z,74.34
2022-10-20T08:42:26.031Z,74.25
2022-10-20T08:43:29.688Z,74.42
2022-10-20T08:44:34.908Z,74.22
2022-10-20T08:45:41.315Z,74.17
2022-10-20T08:46:43.062Z,74.17
2022-10-20T08:47:48.313Z,74.20
2022-10-20T08:48:52.774Z,74.14
2022-10-20T08:49:54.849Z,74.15
2022-10-20T08:50:57.759Z,74.17
2022-10-20T08:52:01.288Z,73.99
2022-10-20T08:53:04.323Z,74.11
2022-10-20T08:54:13.644Z,74.11
2022-10-20T08:55:24.767Z,73.91
2022-10-20T08:56:30.257Z,73.77
2022-10-20T08:57:36.535Z,73.95
2022-10-20T08:58:43.417Z,73.98
2022-10-20T08:59:45.137Z,73.97
2022-10-20T09:00:55.839Z,73.80
2022-10-20T09:02:01.560Z,74.00
2022-10-20T09:03:14.671Z,73.76
2022-10-20T09:04:19.951Z,73.94
2022-10-20T09:05:27.797Z,74.01
2022-10-20T09:06:29.728Z,73.77
2022-10-20T09:07:36.066Z,73.86
2022-10-20T09:08:40.358Z,73.89
2022-10-20T09:09:42.319Z,73.74
2022-10-20T09:10:49.207Z,73.73
2022-10-20T09:11:52.478Z,73.62
2022-10-20T09:12:55.605Z,73.65
2022-10-20T09:13:58.844Z,73.78
2022-10-20T09:15:01.208Z,73.58
2022-10-20T09:16:08.227Z,73.58
2022-10-20T09:17:16.965Z,73.52
2022-10-20T09:18:19.299Z,73.45
2022-10-20T09:19:24.060Z,73.72
2022-10-20T09:20:30.259Z,73.54
2022-10-20T09:21:34.876Z,73.58
2022-10-20T09:22:36.641Z,73.56
2022-10-20T09:23:42.413Z,73.39
2022-10-20T09:24:46.139Z,73.09
2022-10-20T09:25:51.795Z,73.36
2022-10-20T09:26:58.615Z,73.42
2022-10-20T09:28:01.940Z,73.36
2022-10-20T09:29:12.924Z,73.30
2022-10-20T09:30:20.241Z,73.43
2022-10-20T09:31:32.193Z,73.35
2022-10-20T09:32:50.392Z,73.15
2022-10-20T09:33:53.099Z,73.20
2022-10-20T09:35:19.019Z,73.10
2022-10-20T09:36:22.721Z,73.03
2022-10-20T09:37:25.503Z,72.95
2022-10-20T09:38:30.640Z,72.74
2022-10-20T09:39:43.385Z,72.88
2022-10-20T09:40:59.050Z,73.09
2022-10-20T09:42:04.620Z,72.83
2022-10-20T09:43:11.305Z,72.87
2022-10-20T09:44:23.439Z,72.77
2022-10-20T09:45:29.939Z,72.47
2022-10-20T09:46:40.933Z,72.97
2022-10-20T09:47:45.929Z,72.65
2022-10-20T09:48:50.869Z,72.50
2022-10-20T09:50:00.889Z,72.12
2022-10-20T09:51:06.958Z,72.23
2022-10-20T09:52:20.025Z,72.38
2022-10-20T09:53:25.828Z,72.47
2022-10-20T09:54:30.055Z,72.50
2022-10-20T09:55:34.406Z,72.45
2022-10-20T09:56:39.397Z,72.36
2022-10-20T09:57:48.147Z,72.54
2022-10-20T09:58:50.857Z,72.42
2022-10-20T09:59:55.847Z,72.60
2022-10-20T10:01:01.692Z,72.24
2022-10-20T10:02:30.587Z,72.48
2022-10-20T10:03:40.202Z,72.34
2022-10-20T10:04:43.525Z,72.79
2022-10-20T10:05:46.437Z,72.58
2022-10-20T10:06:49.152Z,72.72
2022-10-20T10:07:58.963Z,72.64
2022-10-20T10:09:02.931Z,72.81
2022-10-20T10:10:08.703Z,72.88
2022-10-20T10:11:16.136Z,73.06
2022-10-20T10:12:20.596Z,73.08
2022-10-20T10:13:25.742Z,73.35
2022-10-20T10:14:29.053Z,73.29
2022-10-20T10:15:34.498Z,73.37
2022-10-20T10:16:42.014Z,73.47
2022-10-20T10:17:46.263Z,73.47
2022-10-20T10:19:00.506Z,73.39
2022-10-20T10:20:06.681Z,73.49
2022-10-20T10:21:11.199Z,73.54
2022-10-20T10:22:14.557Z,73.97
2022-10-20T10:23:22.761Z,74.19
2022-10-20T10:24:37.173Z,74.19
2022-10-20T10:25:39.092Z,74.20
2022-10-20T10:26:46.954Z,74.37
2022-10-20T10:28:00.433Z,74.40
2022-10-20T10:29:03.909Z,74.34
2022-10-20T10:30:28.626Z,74.39
2022-10-20T10:31:33.831Z,74.41
2022-10-20T10:32:46.610Z,74.26
2022-10-20T10:33:50.958Z,74.23
2022-10-20T10:35:08.855Z,74.10
2022-10-20T10:36:29.171Z,74.24
2022-10-20T10:37:34.986Z,74.29
2022-10-20T10:38:37.795Z,73.94
2022-10-20T10:39:41.066Z,73.93
2022-10-20T10:40:53.683Z,73.79
2022-10-20T10:42:09.324Z,73.91
2022-10-20T10:43:29.677Z,73.67
2022-10-20T10:44:46.256Z,73.77
2022-10-20T10:45:53.502Z,73.65
2022-10-20T10:47:08.327Z,73.60
2022-10-20T10:48:27.204Z,73.63
2022-10-20T10:49:53.934Z,73.74
2022-10-20T10:50:59.270Z,73.77
2022-10-20T10:52:15.975Z,73.56
2022-10-20T10:53:33.821Z,73.61
2022-10-20T10:54:50.779Z,73.60
2022-10-20T10:56:00.300Z,73.63
2022-10-20T10:57:12.694Z,73.74
2022-10-20T10:58:26.997Z,73.77
2022-10-20T10:59:34.522Z,73.68
2022-10-20T11:00:45.997Z,73.88
2022-10-20T11:02:01.515Z,73.90
2022-10-20T11:03:17.656Z,74.16
2022-10-20T11:04:49.855Z,74.27
2022-10-20T11:06:09.714Z,74.47
2022-10-20T11:07:24.053Z,74.59
2022-10-20T11:08:50.396Z,74.68
2022-10-20T11:10:06.573Z,74.80
2022-10-20T11:11:25.200Z,74.96
2022-10-20T11:12:46.857Z,74.98
2022-10-20T11:13:55.915Z,75.16
2022-10-20T11:15:15.688Z,75.24
2022-10-20T11:16:38.134Z,75.47
2022-10-20T11:17:50.935Z,75.53
2022-10-20T11:19:17.680Z,75.71
2022-10-20T11:20:31.200Z,75.87
2022-10-20T11:21:40.077Z,75.98
2022-10-20T11:22:53.228Z,76.08
2022-10-20T11:24:21.229Z,76.22
2022-10-20T11:25:31.251Z,76.64
2022-10-20T11:26:36.152Z,76.47
2022-10-20T11:27:40.482Z,76.78
2022-10-20T11:28:46.591Z,76.96
2022-10-20T11:29:52.475Z,77.13
2022-10-20T11:30:55.344Z,77.03
2022-10-20T11:32:09.252Z,77.33
2022-10-20T11:33:15.618Z,77.65
2022-10-20T11:34:28.549Z,77.72
2022-10-20T11:35:41.110Z,77.86
2022-10-20T11:36:46.616Z,77.91
2022-10-20T11:37:55.263Z,78.24
2022-10-20T11:38:58.058Z,78.01
2022-10-20T11:40:14.758Z,78.29
2022-10-20T11:41:23.719Z,78.34
2022-10-20T11:42:33.258Z,78.56
2022-10-20T11:43:40.989Z,78.86
2022-10-20T11:44:47.300Z,79.03
2022-10-20T11:45:54.464Z,79.19
2022-10-20T11:47:01.943Z,79.32
2022-10-20T11:48:14.691Z,79.28
2022-10-20T11:49:17.842Z,79.49
2022-10-20T11:50:19.958Z,79.32
2022-10-20T11:51:54.379Z,79.65
2022-10-20T11:53:20.058Z,79.70
2022-10-20T11:54:41.496Z,79.74
2022-10-20T11:56:10.541Z,80.15
2022-10-20T11:57:25.027Z,80.06
2022-10-20T11:58:47.725Z,80.23
2022-10-20T12:00:11.986Z,80.35
2022-10-20T12:01:31.565Z,80.30
2022-10-20T12:02:59.438Z,80.42
2022-10-20T12:04:25.250Z,80.58
2022-10-20T12:05:49.153Z,80.72
2022-10-20T12:07:33.349Z,80.84
2022-10-20T12:08:49.477Z,80.85
2022-10-20T12:10:18.680Z,81.07
2022-10-20T12:11:29.198Z,80.95
2022-10-20T12:12:37.989Z,81.33
2022-10-20T12:13:52.819Z,81.17
2022-10-20T12:14:59.074Z,81.38
2022-10-20T12:16:01.909Z,81.46
2022-10-20T12:17:27.622Z,81.56
2022-10-20T12:18:32.199Z,81.67
2022-10-20T12:19:35.682Z,81.77
2022-10-20T12:20:53.116Z,81.80
2022-10-20T12:21:58.288Z,81.75
2022-10-20T12:23:02.331Z,81.95
2022-10-20T12:24:32.232Z,82.11
2022-10-20T12:25:38.254Z,82.02
2022-10-20T12:27:10.568Z,82.26
2022-10-20T12:28:43.096Z,82.16
2022-10-20T12:30:00.605Z,82.36
2022-10-20T12:31:04.660Z,82.30
2022-10-20T12:32:36.602Z,82.75
2022-10-20T12:33:43.421Z,82.65
2022-10-20T12:34:45.426Z,82.85
2022-10-20T12:36:14.962Z,82.73
2022-10-20T12:37:19.262Z,82.97
2022-10-20T12:38:24.797Z,83.09
2022-10-20T12:39:30.894Z,83.18
2022-10-20T12:40:40.647Z,83.22
2022-10-20T12:41:55.599Z,83.00
2022-10-20T12:42:57.933Z,82.99
2022-10-20T12:44:05.031Z,83.26
2022-10-20T12:45:23.199Z,83.28
2022-10-20T12:46:31.331Z,83.21
2022-10-20T12:47:36.521Z,83.11
2022-10-20T12:48:47.110Z,83.10
2022-10-20T12:49:56.734Z,83.13
2022-10-20T12:51:06.444Z,83.19
2022-10-20T12:52:20.511Z,83.05
2022-10-20T12:53:26.720Z,83.10
2022-10-20T12:54:36.561Z,83.23
2022-10-20T12:55:41.921Z,83.39
2022-10-20T12:56:45.975Z,83.29
2022-10-20T12:57:48.262Z,83.50
2022-10-20T12:59:20.818Z,83.55
2022-10-20T13:01:00.784Z,83.50
2022-10-20T13:02:39.820Z,83.42
2022-10-20T13:03:46.709Z,83.57
2022-10-20T13:04:53.663Z,83.59
2022-10-20T13:05:56.233Z,83.71
2022-10-20T13:06:57.800Z,83.96
2022-10-20T13:08:04.459Z,83.91
2022-10-20T13:09:22.015Z,83.83
2022-10-20T13:10:34.299Z,83.70
2022-10-20T13:11:53.642Z,83.61
2022-10-20T13:13:35.154Z,83.77
2022-10-20T13:14:50.206Z,83.87
2022-10-20T13:15:54.627Z,83.72
2022-10-20T13:17:11.537Z,83.80
2022-10-20T13:18:20.491Z,83.83
2022-10-20T13:19:30.744Z,83.83
2022-10-20T13:20:44.185Z,83.76
2022-10-20T13:21:49.488Z,83.74
2022-10-20T13:22:55.211Z,83.71
2022-10-20T13:24:13.673Z,83.67
2022-10-20T13:25:35.349Z,83.89
2022-10-20T13:26:45.429Z,83.52
2022-10-20T13:27:50.121Z,83.69
2022-10-20T13:28:53.439Z,83.62
2022-10-20T13:29:56.290Z,83.53
2022-10-20T13:31:09.431Z,83.54
2022-10-20T13:32:19.506Z,83.46
2022-10-20T13:33:38.691Z,83.35
2022-10-20T13:34:58.611Z,83.45
2022-10-20T13:36:07.516Z,83.44
2022-10-20T13:37:30.198Z,83.46
2022-10-20T13:38:41.184Z,83.50
2022-10-20T13:39:54.196Z,83.36
2022-10-20T13:41:04.656Z,83.38
2022-10-20T13:42:19.260Z,83.31
2022-10-20T13:43:36.563Z,83.15
2022-10-20T13:44:48.067Z,83.20
2022-10-20T13:46:11.366Z,83.16
2022-10-20T13:47:35.456Z,83.12
2022-10-20T13:49:16.570Z,82.87
2022-10-20T13:50:23.754Z,83.04
2022-10-20T13:51:28.995Z,83.05
2022-10-20T13:52:34.786Z,82.97
2022-10-20T13:53:41.343Z,83.02
2022-10-20T13:54:47.989Z,82.81
2022-10-20T13:56:00.110Z,82.85
2022-10-20T13:57:02.464Z,82.88
2022-10-20T13:58:08.511Z,82.72
2022-10-20T14:00:33.007Z,82.71
2022-10-20T14:01:36.535Z,82.74
2022-10-20T14:02:39.482Z,82.74
2022-10-20T14:03:44.505Z,82.97
2022-10-20T14:04:47.064Z,82.77
2022-10-20T14:05:50.669Z,83.01
2022-10-20T14:06:53.136Z,82.92
2022-10-20T14:07:55.998Z,83.06
2022-10-20T14:08:59.255Z,83.14
2022-10-20T14:10:01.765Z,83.03
2022-10-20T14:11:08.376Z,83.27
2022-10-20T14:12:16.694Z,83.10
2022-10-20T14:13:21.711Z,83.32
2022-10-20T14:14:25.844Z,83.36
2022-10-20T14:15:31.993Z,83.28
2022-10-20T14:16:33.751Z,83.37
2022-10-20T14:17:40.683Z,83.43
2022-10-20T14:18:43.560Z,83.46
2022-10-20T14:19:46.792Z,83.39
2022-10-20T14:20:56.530Z,83.44
2022-10-20T14:22:10.670Z,83.29
2022-10-20T14:23:12.939Z,83.58
2022-10-20T14:24:29.631Z,83.67
2022-10-20T14:25:33.529Z,83.80
2022-10-20T14:26:37.683Z,83.64